<?xml version="1.0" encoding="UTF-8" standalone="no" ?>
<gpx xmlns="http://www.topografix.com/GPX/1/1" xmlns:xsi="http://www.w3.org/2001/XMLSchema-instance" xsi:schemaLocation="http://www.topografix.com/GPX/1/1 http://www.topografix.com/GPX/1/1/gpx.xsd" version="1.1" creator="VisuGPX - https://www.visugpx.com">
  <metadata>
    <name>Chartreuse de la Verne</name>
    <desc><![CDATA[COLLOBRIERES: Chartreuse de la Verne]]></desc>
  </metadata>
  <trk>
    <name><![CDATA[2015-04-19-Collobrières La Verne]]></name>
    <trkseg>
      <trkpt lat="43.23782" lon="6.35597">
        <ele>356.8</ele>
        <time>2015-04-19T07:20:08Z</time>
      </trkpt>
      <trkpt lat="43.23794" lon="6.35613">
        <ele>356</ele>
        <time>2015-04-19T07:22:33Z</time>
      </trkpt>
      <trkpt lat="43.23795" lon="6.35614">
        <ele>356</ele>
        <time>2015-04-19T07:22:34Z</time>
      </trkpt>
      <trkpt lat="43.23823" lon="6.35639">
        <ele>361.5</ele>
        <time>2015-04-19T07:23:16Z</time>
      </trkpt>
      <trkpt lat="43.23838" lon="6.35651">
        <ele>364</ele>
        <time>2015-04-19T07:23:39Z</time>
      </trkpt>
      <trkpt lat="43.23839" lon="6.35652">
        <ele>364</ele>
        <time>2015-04-19T07:23:40Z</time>
      </trkpt>
      <trkpt lat="43.23872" lon="6.35658">
        <ele>365.7</ele>
        <time>2015-04-19T07:24:20Z</time>
      </trkpt>
      <trkpt lat="43.2389" lon="6.3566">
        <ele>368.4</ele>
        <time>2015-04-19T07:24:45Z</time>
      </trkpt>
      <trkpt lat="43.23891" lon="6.35661">
        <ele>368.4</ele>
        <time>2015-04-19T07:24:46Z</time>
      </trkpt>
      <trkpt lat="43.23918" lon="6.35681">
        <ele>371.9</ele>
        <time>2015-04-19T07:25:21Z</time>
      </trkpt>
      <trkpt lat="43.23934" lon="6.35688">
        <ele>373.7</ele>
        <time>2015-04-19T07:25:40Z</time>
      </trkpt>
      <trkpt lat="43.23949" lon="6.35701">
        <ele>374.8</ele>
        <time>2015-04-19T07:25:55Z</time>
      </trkpt>
      <trkpt lat="43.23949" lon="6.35702">
        <ele>374.8</ele>
        <time>2015-04-19T07:25:56Z</time>
      </trkpt>
      <trkpt lat="43.23971" lon="6.35737">
        <ele>378.6</ele>
        <time>2015-04-19T07:26:35Z</time>
      </trkpt>
      <trkpt lat="43.23982" lon="6.35756">
        <ele>382</ele>
        <time>2015-04-19T07:26:59Z</time>
      </trkpt>
      <trkpt lat="43.23983" lon="6.35758">
        <ele>382</ele>
        <time>2015-04-19T07:27:00Z</time>
      </trkpt>
      <trkpt lat="43.24003" lon="6.35795">
        <ele>391.4</ele>
        <time>2015-04-19T07:27:52Z</time>
      </trkpt>
      <trkpt lat="43.24009" lon="6.35816">
        <ele>394.7</ele>
        <time>2015-04-19T07:28:18Z</time>
      </trkpt>
      <trkpt lat="43.2401" lon="6.35817">
        <ele>394.7</ele>
        <time>2015-04-19T07:28:19Z</time>
      </trkpt>
      <trkpt lat="43.24034" lon="6.35849">
        <ele>403</ele>
        <time>2015-04-19T07:29:17Z</time>
      </trkpt>
      <trkpt lat="43.2404" lon="6.35872">
        <ele>408.8</ele>
        <time>2015-04-19T07:29:51Z</time>
      </trkpt>
      <trkpt lat="43.2404" lon="6.35873">
        <ele>408.8</ele>
        <time>2015-04-19T07:29:52Z</time>
      </trkpt>
      <trkpt lat="43.24059" lon="6.35912">
        <ele>419.5</ele>
        <time>2015-04-19T07:31:02Z</time>
      </trkpt>
      <trkpt lat="43.2406" lon="6.35912">
        <ele>419.5</ele>
        <time>2015-04-19T07:31:03Z</time>
      </trkpt>
      <trkpt lat="43.24075" lon="6.35955">
        <ele>429.2</ele>
        <time>2015-04-19T07:32:04Z</time>
      </trkpt>
      <trkpt lat="43.24074" lon="6.35956">
        <ele>429.2</ele>
        <time>2015-04-19T07:32:05Z</time>
      </trkpt>
      <trkpt lat="43.24094" lon="6.35996">
        <ele>435.7</ele>
        <time>2015-04-19T07:33:05Z</time>
      </trkpt>
      <trkpt lat="43.24094" lon="6.35997">
        <ele>435.7</ele>
        <time>2015-04-19T07:33:06Z</time>
      </trkpt>
      <trkpt lat="43.24106" lon="6.36039">
        <ele>439.9</ele>
        <time>2015-04-19T07:33:44Z</time>
      </trkpt>
      <trkpt lat="43.24117" lon="6.36058">
        <ele>441.4</ele>
        <time>2015-04-19T07:34:02Z</time>
      </trkpt>
      <trkpt lat="43.24126" lon="6.36078">
        <ele>441.5</ele>
        <time>2015-04-19T07:34:17Z</time>
      </trkpt>
      <trkpt lat="43.24127" lon="6.36079">
        <ele>441.5</ele>
        <time>2015-04-19T07:34:18Z</time>
      </trkpt>
      <trkpt lat="43.24157" lon="6.36091">
        <ele>440.3</ele>
        <time>2015-04-19T07:34:59Z</time>
      </trkpt>
      <trkpt lat="43.24174" lon="6.36088">
        <ele>436.8</ele>
        <time>2015-04-19T07:35:27Z</time>
      </trkpt>
      <trkpt lat="43.24175" lon="6.36088">
        <ele>436.8</ele>
        <time>2015-04-19T07:35:28Z</time>
      </trkpt>
      <trkpt lat="43.24208" lon="6.36081">
        <ele>430.2</ele>
        <time>2015-04-19T07:36:07Z</time>
      </trkpt>
      <trkpt lat="43.24225" lon="6.36085">
        <ele>424</ele>
        <time>2015-04-19T07:36:35Z</time>
      </trkpt>
      <trkpt lat="43.24226" lon="6.36085">
        <ele>424</ele>
        <time>2015-04-19T07:36:36Z</time>
      </trkpt>
      <trkpt lat="43.24244" lon="6.36084">
        <ele>418.2</ele>
        <time>2015-04-19T07:37:38Z</time>
      </trkpt>
      <trkpt lat="43.24278" lon="6.36091">
        <ele>407.2</ele>
        <time>2015-04-19T07:38:38Z</time>
      </trkpt>
      <trkpt lat="43.24279" lon="6.3609">
        <ele>407.2</ele>
        <time>2015-04-19T07:38:39Z</time>
      </trkpt>
      <trkpt lat="43.24312" lon="6.36098">
        <ele>396.7</ele>
        <time>2015-04-19T07:39:42Z</time>
      </trkpt>
      <trkpt lat="43.24314" lon="6.36099">
        <ele>396.7</ele>
        <time>2015-04-19T07:39:43Z</time>
      </trkpt>
      <trkpt lat="43.24327" lon="6.36142">
        <ele>393.2</ele>
        <time>2015-04-19T07:40:18Z</time>
      </trkpt>
      <trkpt lat="43.24328" lon="6.36166">
        <ele>391.4</ele>
        <time>2015-04-19T07:40:29Z</time>
      </trkpt>
      <trkpt lat="43.24328" lon="6.3619">
        <ele>390.1</ele>
        <time>2015-04-19T07:41:02Z</time>
      </trkpt>
      <trkpt lat="43.24329" lon="6.36191">
        <ele>390.1</ele>
        <time>2015-04-19T07:41:03Z</time>
      </trkpt>
      <trkpt lat="43.24345" lon="6.36228">
        <ele>384.1</ele>
        <time>2015-04-19T07:41:38Z</time>
      </trkpt>
      <trkpt lat="43.24346" lon="6.36251">
        <ele>383.3</ele>
        <time>2015-04-19T07:41:59Z</time>
      </trkpt>
      <trkpt lat="43.24343" lon="6.36276">
        <ele>382.2</ele>
        <time>2015-04-19T07:42:19Z</time>
      </trkpt>
      <trkpt lat="43.24343" lon="6.36277">
        <ele>382.2</ele>
        <time>2015-04-19T07:42:20Z</time>
      </trkpt>
      <trkpt lat="43.24341" lon="6.36323">
        <ele>379.5</ele>
        <time>2015-04-19T07:42:50Z</time>
      </trkpt>
      <trkpt lat="43.24339" lon="6.36346">
        <ele>378.1</ele>
        <time>2015-04-19T07:43:06Z</time>
      </trkpt>
      <trkpt lat="43.24339" lon="6.3637">
        <ele>374.8</ele>
        <time>2015-04-19T07:43:24Z</time>
      </trkpt>
      <trkpt lat="43.24339" lon="6.36372">
        <ele>374.8</ele>
        <time>2015-04-19T07:43:25Z</time>
      </trkpt>
      <trkpt lat="43.24345" lon="6.36418">
        <ele>371.6</ele>
        <time>2015-04-19T07:43:57Z</time>
      </trkpt>
      <trkpt lat="43.24346" lon="6.36441">
        <ele>369.8</ele>
        <time>2015-04-19T07:44:16Z</time>
      </trkpt>
      <trkpt lat="43.24336" lon="6.36456">
        <ele>368.7</ele>
        <time>2015-04-19T07:44:42Z</time>
      </trkpt>
      <trkpt lat="43.24334" lon="6.36463">
        <ele>368.7</ele>
        <time>2015-04-19T07:44:43Z</time>
      </trkpt>
      <trkpt lat="43.24332" lon="6.36503">
        <ele>367.8</ele>
        <time>2015-04-19T07:46:00Z</time>
      </trkpt>
      <trkpt lat="43.24332" lon="6.36504">
        <ele>367.8</ele>
        <time>2015-04-19T07:46:01Z</time>
      </trkpt>
      <trkpt lat="43.24332" lon="6.36552">
        <ele>360.6</ele>
        <time>2015-04-19T07:47:03Z</time>
      </trkpt>
      <trkpt lat="43.2433" lon="6.36552">
        <ele>360.6</ele>
        <time>2015-04-19T07:47:04Z</time>
      </trkpt>
      <trkpt lat="43.24325" lon="6.36598">
        <ele>357</ele>
        <time>2015-04-19T07:48:03Z</time>
      </trkpt>
      <trkpt lat="43.24311" lon="6.36613">
        <ele>353.5</ele>
        <time>2015-04-19T07:48:27Z</time>
      </trkpt>
      <trkpt lat="43.2431" lon="6.36614">
        <ele>353.5</ele>
        <time>2015-04-19T07:48:28Z</time>
      </trkpt>
      <trkpt lat="43.24288" lon="6.36648">
        <ele>350.9</ele>
        <time>2015-04-19T07:49:15Z</time>
      </trkpt>
      <trkpt lat="43.24296" lon="6.36649">
        <ele>350.6</ele>
        <time>2015-04-19T07:50:03Z</time>
      </trkpt>
      <trkpt lat="43.24306" lon="6.36653">
        <ele>350.6</ele>
        <time>2015-04-19T07:50:08Z</time>
      </trkpt>
      <trkpt lat="43.24294" lon="6.36661">
        <ele>351</ele>
        <time>2015-04-19T07:50:12Z</time>
      </trkpt>
      <trkpt lat="43.24278" lon="6.36652">
        <ele>351</ele>
        <time>2015-04-19T07:50:24Z</time>
      </trkpt>
      <trkpt lat="43.24283" lon="6.36675">
        <ele>348</ele>
        <time>2015-04-19T07:51:25Z</time>
      </trkpt>
      <trkpt lat="43.24283" lon="6.36676">
        <ele>348</ele>
        <time>2015-04-19T07:51:26Z</time>
      </trkpt>
      <trkpt lat="43.24265" lon="6.36679">
        <ele>350.5</ele>
        <time>2015-04-19T07:52:47Z</time>
      </trkpt>
      <trkpt lat="43.24231" lon="6.36672">
        <ele>347.8</ele>
        <time>2015-04-19T07:53:32Z</time>
      </trkpt>
      <trkpt lat="43.24213" lon="6.36675">
        <ele>346</ele>
        <time>2015-04-19T07:54:09Z</time>
      </trkpt>
      <trkpt lat="43.24213" lon="6.36674">
        <ele>346</ele>
        <time>2015-04-19T07:54:10Z</time>
      </trkpt>
      <trkpt lat="43.24184" lon="6.367">
        <ele>346.4</ele>
        <time>2015-04-19T07:55:29Z</time>
      </trkpt>
      <trkpt lat="43.24183" lon="6.36699">
        <ele>346.4</ele>
        <time>2015-04-19T07:55:30Z</time>
      </trkpt>
      <trkpt lat="43.24149" lon="6.36704">
        <ele>349.4</ele>
        <time>2015-04-19T07:57:26Z</time>
      </trkpt>
      <trkpt lat="43.24149" lon="6.36703">
        <ele>349.4</ele>
        <time>2015-04-19T07:57:27Z</time>
      </trkpt>
      <trkpt lat="43.24114" lon="6.36698">
        <ele>347.5</ele>
        <time>2015-04-19T07:59:40Z</time>
      </trkpt>
      <trkpt lat="43.24113" lon="6.36698">
        <ele>347.5</ele>
        <time>2015-04-19T07:59:41Z</time>
      </trkpt>
      <trkpt lat="43.24097" lon="6.36691">
        <ele>345</ele>
        <time>2015-04-19T08:01:32Z</time>
      </trkpt>
      <trkpt lat="43.24089" lon="6.36669">
        <ele>338.6</ele>
        <time>2015-04-19T08:03:59Z</time>
      </trkpt>
      <trkpt lat="43.24073" lon="6.36682">
        <ele>337.8</ele>
        <time>2015-04-19T08:05:33Z</time>
      </trkpt>
      <trkpt lat="43.24056" lon="6.36679">
        <ele>334.4</ele>
        <time>2015-04-19T08:06:51Z</time>
      </trkpt>
      <trkpt lat="43.24041" lon="6.36692">
        <ele>326.1</ele>
        <time>2015-04-19T08:08:21Z</time>
      </trkpt>
      <trkpt lat="43.24023" lon="6.36694">
        <ele>323.9</ele>
        <time>2015-04-19T08:10:47Z</time>
      </trkpt>
      <trkpt lat="43.24006" lon="6.36692">
        <ele>320.1</ele>
        <time>2015-04-19T08:12:33Z</time>
      </trkpt>
      <trkpt lat="43.23991" lon="6.36706">
        <ele>314.4</ele>
        <time>2015-04-19T08:15:49Z</time>
      </trkpt>
      <trkpt lat="43.23977" lon="6.36722">
        <ele>309.1</ele>
        <time>2015-04-19T08:17:44Z</time>
      </trkpt>
      <trkpt lat="43.23962" lon="6.36734">
        <ele>299.2</ele>
        <time>2015-04-19T08:22:24Z</time>
      </trkpt>
      <trkpt lat="43.23944" lon="6.36741">
        <ele>300.8</ele>
        <time>2015-04-19T08:23:33Z</time>
      </trkpt>
      <trkpt lat="43.23919" lon="6.36771">
        <ele>298.1</ele>
        <time>2015-04-19T08:24:35Z</time>
      </trkpt>
      <trkpt lat="43.23918" lon="6.36772">
        <ele>298.1</ele>
        <time>2015-04-19T08:24:36Z</time>
      </trkpt>
      <trkpt lat="43.23887" lon="6.36794">
        <ele>294.4</ele>
        <time>2015-04-19T08:25:55Z</time>
      </trkpt>
      <trkpt lat="43.23887" lon="6.36795">
        <ele>294.4</ele>
        <time>2015-04-19T08:25:56Z</time>
      </trkpt>
      <trkpt lat="43.23877" lon="6.36815">
        <ele>286</ele>
        <time>2015-04-19T08:28:14Z</time>
      </trkpt>
      <trkpt lat="43.23863" lon="6.36831">
        <ele>277.4</ele>
        <time>2015-04-19T08:31:57Z</time>
      </trkpt>
      <trkpt lat="43.23851" lon="6.36849">
        <ele>276.7</ele>
        <time>2015-04-19T08:33:31Z</time>
      </trkpt>
      <trkpt lat="43.23839" lon="6.36866">
        <ele>279.1</ele>
        <time>2015-04-19T08:34:56Z</time>
      </trkpt>
      <trkpt lat="43.23822" lon="6.36856">
        <ele>284.7</ele>
        <time>2015-04-19T08:36:23Z</time>
      </trkpt>
      <trkpt lat="43.23801" lon="6.36893">
        <ele>285.3</ele>
        <time>2015-04-19T08:37:21Z</time>
      </trkpt>
      <trkpt lat="43.23784" lon="6.369">
        <ele>293.7</ele>
        <time>2015-04-19T08:38:46Z</time>
      </trkpt>
      <trkpt lat="43.23783" lon="6.36901">
        <ele>293.7</ele>
        <time>2015-04-19T08:38:47Z</time>
      </trkpt>
      <trkpt lat="43.23766" lon="6.36908">
        <ele>297.8</ele>
        <time>2015-04-19T08:39:54Z</time>
      </trkpt>
      <trkpt lat="43.23749" lon="6.36913">
        <ele>303.5</ele>
        <time>2015-04-19T08:41:11Z</time>
      </trkpt>
      <trkpt lat="43.23735" lon="6.36929">
        <ele>304.7</ele>
        <time>2015-04-19T08:42:44Z</time>
      </trkpt>
      <trkpt lat="43.23711" lon="6.36964">
        <ele>316.1</ele>
        <time>2015-04-19T08:44:14Z</time>
      </trkpt>
      <trkpt lat="43.23711" lon="6.36965">
        <ele>316.1</ele>
        <time>2015-04-19T08:44:15Z</time>
      </trkpt>
      <trkpt lat="43.23693" lon="6.36968">
        <ele>325.7</ele>
        <time>2015-04-19T08:45:18Z</time>
      </trkpt>
      <trkpt lat="43.2367" lon="6.37001">
        <ele>338.5</ele>
        <time>2015-04-19T08:46:47Z</time>
      </trkpt>
      <trkpt lat="43.2367" lon="6.37002">
        <ele>338.5</ele>
        <time>2015-04-19T08:46:48Z</time>
      </trkpt>
      <trkpt lat="43.23653" lon="6.37041">
        <ele>338.5</ele>
        <time>2015-04-19T08:47:35Z</time>
      </trkpt>
      <trkpt lat="43.23644" lon="6.37063">
        <ele>336.2</ele>
        <time>2015-04-19T08:47:56Z</time>
      </trkpt>
      <trkpt lat="43.23644" lon="6.37064">
        <ele>336.2</ele>
        <time>2015-04-19T08:47:57Z</time>
      </trkpt>
      <trkpt lat="43.23628" lon="6.37106">
        <ele>329.8</ele>
        <time>2015-04-19T08:50:49Z</time>
      </trkpt>
      <trkpt lat="43.23628" lon="6.37107">
        <ele>329.8</ele>
        <time>2015-04-19T08:50:50Z</time>
      </trkpt>
      <trkpt lat="43.23601" lon="6.37136">
        <ele>326.5</ele>
        <time>2015-04-19T08:51:54Z</time>
      </trkpt>
      <trkpt lat="43.236" lon="6.37136">
        <ele>326.5</ele>
        <time>2015-04-19T08:51:55Z</time>
      </trkpt>
      <trkpt lat="43.23566" lon="6.37139">
        <ele>325</ele>
        <time>2015-04-19T08:52:40Z</time>
      </trkpt>
      <trkpt lat="43.23552" lon="6.37155">
        <ele>325.9</ele>
        <time>2015-04-19T08:59:12Z</time>
      </trkpt>
      <trkpt lat="43.23552" lon="6.37155">
        <ele>325.9</ele>
        <time>2015-04-19T08:59:13Z</time>
      </trkpt>
      <trkpt lat="43.2354" lon="6.37199">
        <ele>320.3</ele>
        <time>2015-04-19T09:00:02Z</time>
      </trkpt>
      <trkpt lat="43.23531" lon="6.37221">
        <ele>317.9</ele>
        <time>2015-04-19T09:00:21Z</time>
      </trkpt>
      <trkpt lat="43.23531" lon="6.37222">
        <ele>317.9</ele>
        <time>2015-04-19T09:00:22Z</time>
      </trkpt>
      <trkpt lat="43.23513" lon="6.37263">
        <ele>314.8</ele>
        <time>2015-04-19T09:01:02Z</time>
      </trkpt>
      <trkpt lat="43.23509" lon="6.37286">
        <ele>314.4</ele>
        <time>2015-04-19T09:01:23Z</time>
      </trkpt>
      <trkpt lat="43.23509" lon="6.37287">
        <ele>314.4</ele>
        <time>2015-04-19T09:01:24Z</time>
      </trkpt>
      <trkpt lat="43.23511" lon="6.37333">
        <ele>311</ele>
        <time>2015-04-19T09:02:09Z</time>
      </trkpt>
      <trkpt lat="43.23513" lon="6.37357">
        <ele>309.3</ele>
        <time>2015-04-19T09:02:25Z</time>
      </trkpt>
      <trkpt lat="43.23513" lon="6.37358">
        <ele>309.3</ele>
        <time>2015-04-19T09:02:26Z</time>
      </trkpt>
      <trkpt lat="43.23525" lon="6.37399">
        <ele>308.3</ele>
        <time>2015-04-19T09:03:09Z</time>
      </trkpt>
      <trkpt lat="43.23529" lon="6.37422">
        <ele>307.6</ele>
        <time>2015-04-19T09:03:28Z</time>
      </trkpt>
      <trkpt lat="43.23529" lon="6.37424">
        <ele>307.6</ele>
        <time>2015-04-19T09:03:29Z</time>
      </trkpt>
      <trkpt lat="43.23543" lon="6.37467">
        <ele>305.8</ele>
        <time>2015-04-19T09:04:07Z</time>
      </trkpt>
      <trkpt lat="43.23543" lon="6.37491">
        <ele>305.3</ele>
        <time>2015-04-19T09:04:25Z</time>
      </trkpt>
      <trkpt lat="43.23556" lon="6.37505">
        <ele>304.7</ele>
        <time>2015-04-19T09:04:58Z</time>
      </trkpt>
      <trkpt lat="43.23559" lon="6.37506">
        <ele>304.7</ele>
        <time>2015-04-19T09:04:59Z</time>
      </trkpt>
      <trkpt lat="43.23587" lon="6.37519">
        <ele>303.7</ele>
        <time>2015-04-19T09:05:28Z</time>
      </trkpt>
      <trkpt lat="43.23599" lon="6.37537">
        <ele>302.3</ele>
        <time>2015-04-19T09:05:46Z</time>
      </trkpt>
      <trkpt lat="43.23606" lon="6.37559">
        <ele>301.1</ele>
        <time>2015-04-19T09:06:03Z</time>
      </trkpt>
      <trkpt lat="43.23607" lon="6.37561">
        <ele>301.1</ele>
        <time>2015-04-19T09:06:04Z</time>
      </trkpt>
      <trkpt lat="43.23632" lon="6.37592">
        <ele>300.6</ele>
        <time>2015-04-19T09:06:42Z</time>
      </trkpt>
      <trkpt lat="43.23645" lon="6.37607">
        <ele>300.3</ele>
        <time>2015-04-19T09:06:59Z</time>
      </trkpt>
      <trkpt lat="43.23658" lon="6.37624">
        <ele>300.8</ele>
        <time>2015-04-19T09:07:22Z</time>
      </trkpt>
      <trkpt lat="43.23659" lon="6.37625">
        <ele>300.8</ele>
        <time>2015-04-19T09:07:23Z</time>
      </trkpt>
      <trkpt lat="43.23673" lon="6.37664">
        <ele>299.1</ele>
        <time>2015-04-19T09:08:00Z</time>
      </trkpt>
      <trkpt lat="43.2367" lon="6.37688">
        <ele>297.2</ele>
        <time>2015-04-19T09:08:16Z</time>
      </trkpt>
      <trkpt lat="43.23666" lon="6.37712">
        <ele>294.9</ele>
        <time>2015-04-19T09:08:36Z</time>
      </trkpt>
      <trkpt lat="43.23666" lon="6.37713">
        <ele>294.9</ele>
        <time>2015-04-19T09:08:37Z</time>
      </trkpt>
      <trkpt lat="43.23657" lon="6.37756">
        <ele>291.7</ele>
        <time>2015-04-19T09:09:21Z</time>
      </trkpt>
      <trkpt lat="43.23673" lon="6.37766">
        <ele>290.7</ele>
        <time>2015-04-19T09:09:46Z</time>
      </trkpt>
      <trkpt lat="43.23674" lon="6.37766">
        <ele>290.7</ele>
        <time>2015-04-19T09:09:47Z</time>
      </trkpt>
      <trkpt lat="43.23693" lon="6.37806">
        <ele>289.1</ele>
        <time>2015-04-19T09:10:44Z</time>
      </trkpt>
      <trkpt lat="43.23705" lon="6.37823">
        <ele>288.8</ele>
        <time>2015-04-19T09:11:06Z</time>
      </trkpt>
      <trkpt lat="43.23706" lon="6.37825">
        <ele>288.8</ele>
        <time>2015-04-19T09:11:07Z</time>
      </trkpt>
      <trkpt lat="43.23711" lon="6.37863">
        <ele>287.1</ele>
        <time>2015-04-19T09:11:41Z</time>
      </trkpt>
      <trkpt lat="43.23726" lon="6.37875">
        <ele>286.2</ele>
        <time>2015-04-19T09:12:18Z</time>
      </trkpt>
      <trkpt lat="43.23726" lon="6.37876">
        <ele>286.2</ele>
        <time>2015-04-19T09:12:19Z</time>
      </trkpt>
      <trkpt lat="43.23752" lon="6.37909">
        <ele>284.9</ele>
        <time>2015-04-19T09:12:58Z</time>
      </trkpt>
      <trkpt lat="43.23763" lon="6.37928">
        <ele>283.9</ele>
        <time>2015-04-19T09:13:19Z</time>
      </trkpt>
      <trkpt lat="43.23764" lon="6.37929">
        <ele>283.9</ele>
        <time>2015-04-19T09:13:20Z</time>
      </trkpt>
      <trkpt lat="43.2379" lon="6.3796">
        <ele>282.8</ele>
        <time>2015-04-19T09:13:56Z</time>
      </trkpt>
      <trkpt lat="43.23792" lon="6.37983">
        <ele>282</ele>
        <time>2015-04-19T09:14:16Z</time>
      </trkpt>
      <trkpt lat="43.23796" lon="6.38007">
        <ele>280.9</ele>
        <time>2015-04-19T09:15:05Z</time>
      </trkpt>
      <trkpt lat="43.23796" lon="6.38007">
        <ele>280.9</ele>
        <time>2015-04-19T09:15:06Z</time>
      </trkpt>
      <trkpt lat="43.23803" lon="6.38055">
        <ele>277.4</ele>
        <time>2015-04-19T09:16:21Z</time>
      </trkpt>
      <trkpt lat="43.23803" lon="6.38056">
        <ele>277.4</ele>
        <time>2015-04-19T09:16:22Z</time>
      </trkpt>
      <trkpt lat="43.23819" lon="6.38099">
        <ele>274.2</ele>
        <time>2015-04-19T09:17:23Z</time>
      </trkpt>
      <trkpt lat="43.23819" lon="6.381">
        <ele>274.2</ele>
        <time>2015-04-19T09:17:24Z</time>
      </trkpt>
      <trkpt lat="43.23828" lon="6.38145">
        <ele>271</ele>
        <time>2015-04-19T09:18:01Z</time>
      </trkpt>
      <trkpt lat="43.23835" lon="6.38167">
        <ele>269.4</ele>
        <time>2015-04-19T09:18:23Z</time>
      </trkpt>
      <trkpt lat="43.23843" lon="6.38188">
        <ele>268.1</ele>
        <time>2015-04-19T09:18:42Z</time>
      </trkpt>
      <trkpt lat="43.23844" lon="6.38191">
        <ele>268.1</ele>
        <time>2015-04-19T09:18:43Z</time>
      </trkpt>
      <trkpt lat="43.23859" lon="6.38231">
        <ele>265.8</ele>
        <time>2015-04-19T09:19:19Z</time>
      </trkpt>
      <trkpt lat="43.23872" lon="6.38247">
        <ele>265</ele>
        <time>2015-04-19T09:19:34Z</time>
      </trkpt>
      <trkpt lat="43.23878" lon="6.38269">
        <ele>264.3</ele>
        <time>2015-04-19T09:19:54Z</time>
      </trkpt>
      <trkpt lat="43.23878" lon="6.3827">
        <ele>264.3</ele>
        <time>2015-04-19T09:19:55Z</time>
      </trkpt>
      <trkpt lat="43.23873" lon="6.38313">
        <ele>263</ele>
        <time>2015-04-19T09:20:26Z</time>
      </trkpt>
      <trkpt lat="43.23871" lon="6.38336">
        <ele>263</ele>
        <time>2015-04-19T09:20:47Z</time>
      </trkpt>
      <trkpt lat="43.23884" lon="6.38351">
        <ele>261.2</ele>
        <time>2015-04-19T09:23:02Z</time>
      </trkpt>
      <trkpt lat="43.23885" lon="6.38352">
        <ele>261.2</ele>
        <time>2015-04-19T09:23:03Z</time>
      </trkpt>
      <trkpt lat="43.23914" lon="6.38371">
        <ele>260</ele>
        <time>2015-04-19T09:23:36Z</time>
      </trkpt>
      <trkpt lat="43.23926" lon="6.38389">
        <ele>259.6</ele>
        <time>2015-04-19T09:23:55Z</time>
      </trkpt>
      <trkpt lat="43.23937" lon="6.38406">
        <ele>258.7</ele>
        <time>2015-04-19T09:24:11Z</time>
      </trkpt>
      <trkpt lat="43.23938" lon="6.38407">
        <ele>258.7</ele>
        <time>2015-04-19T09:24:12Z</time>
      </trkpt>
      <trkpt lat="43.23966" lon="6.38434">
        <ele>256.9</ele>
        <time>2015-04-19T09:24:46Z</time>
      </trkpt>
      <trkpt lat="43.23977" lon="6.3845">
        <ele>255.4</ele>
        <time>2015-04-19T09:25:08Z</time>
      </trkpt>
      <trkpt lat="43.23981" lon="6.38474">
        <ele>254.6</ele>
        <time>2015-04-19T09:25:24Z</time>
      </trkpt>
      <trkpt lat="43.23983" lon="6.38475">
        <ele>254.6</ele>
        <time>2015-04-19T09:25:25Z</time>
      </trkpt>
      <trkpt lat="43.23989" lon="6.38522">
        <ele>252.3</ele>
        <time>2015-04-19T09:25:56Z</time>
      </trkpt>
      <trkpt lat="43.2399" lon="6.38545">
        <ele>251.7</ele>
        <time>2015-04-19T09:26:11Z</time>
      </trkpt>
      <trkpt lat="43.23989" lon="6.38569">
        <ele>250.2</ele>
        <time>2015-04-19T09:26:27Z</time>
      </trkpt>
      <trkpt lat="43.23989" lon="6.3857">
        <ele>250.2</ele>
        <time>2015-04-19T09:26:28Z</time>
      </trkpt>
      <trkpt lat="43.23997" lon="6.38616">
        <ele>247</ele>
        <time>2015-04-19T09:27:04Z</time>
      </trkpt>
      <trkpt lat="43.24002" lon="6.38639">
        <ele>245.3</ele>
        <time>2015-04-19T09:27:22Z</time>
      </trkpt>
      <trkpt lat="43.23994" lon="6.38659">
        <ele>244.7</ele>
        <time>2015-04-19T09:27:37Z</time>
      </trkpt>
      <trkpt lat="43.23993" lon="6.3866">
        <ele>244.7</ele>
        <time>2015-04-19T09:27:38Z</time>
      </trkpt>
      <trkpt lat="43.23969" lon="6.38694">
        <ele>240.2</ele>
        <time>2015-04-19T09:28:15Z</time>
      </trkpt>
      <trkpt lat="43.23985" lon="6.38688">
        <ele>235.6</ele>
        <time>2015-04-19T09:29:53Z</time>
      </trkpt>
      <trkpt lat="43.23987" lon="6.38689">
        <ele>235.6</ele>
        <time>2015-04-19T09:29:54Z</time>
      </trkpt>
      <trkpt lat="43.2402" lon="6.38695">
        <ele>232.9</ele>
        <time>2015-04-19T09:30:24Z</time>
      </trkpt>
      <trkpt lat="43.24037" lon="6.38697">
        <ele>232.7</ele>
        <time>2015-04-19T09:30:43Z</time>
      </trkpt>
      <trkpt lat="43.24051" lon="6.38712">
        <ele>233.9</ele>
        <time>2015-04-19T09:31:12Z</time>
      </trkpt>
      <trkpt lat="43.24052" lon="6.38712">
        <ele>233.9</ele>
        <time>2015-04-19T09:31:13Z</time>
      </trkpt>
      <trkpt lat="43.24077" lon="6.38744">
        <ele>240.7</ele>
        <time>2015-04-19T09:32:05Z</time>
      </trkpt>
      <trkpt lat="43.24085" lon="6.38766">
        <ele>243.7</ele>
        <time>2015-04-19T09:32:31Z</time>
      </trkpt>
      <trkpt lat="43.24085" lon="6.38766">
        <ele>243.7</ele>
        <time>2015-04-19T09:32:32Z</time>
      </trkpt>
      <trkpt lat="43.24101" lon="6.38808">
        <ele>249.2</ele>
        <time>2015-04-19T09:33:24Z</time>
      </trkpt>
      <trkpt lat="43.24103" lon="6.38831">
        <ele>251.8</ele>
        <time>2015-04-19T09:33:47Z</time>
      </trkpt>
      <trkpt lat="43.24103" lon="6.38833">
        <ele>251.8</ele>
        <time>2015-04-19T09:33:48Z</time>
      </trkpt>
      <trkpt lat="43.2411" lon="6.38879">
        <ele>256.4</ele>
        <time>2015-04-19T09:34:32Z</time>
      </trkpt>
      <trkpt lat="43.24107" lon="6.38902">
        <ele>257.2</ele>
        <time>2015-04-19T09:34:52Z</time>
      </trkpt>
      <trkpt lat="43.24106" lon="6.38904">
        <ele>257.2</ele>
        <time>2015-04-19T09:34:53Z</time>
      </trkpt>
      <trkpt lat="43.24079" lon="6.38928">
        <ele>259.5</ele>
        <time>2015-04-19T09:35:32Z</time>
      </trkpt>
      <trkpt lat="43.24063" lon="6.38932">
        <ele>262.2</ele>
        <time>2015-04-19T09:35:59Z</time>
      </trkpt>
      <trkpt lat="43.24061" lon="6.38933">
        <ele>262.2</ele>
        <time>2015-04-19T09:36:00Z</time>
      </trkpt>
      <trkpt lat="43.2403" lon="6.38932">
        <ele>269</ele>
        <time>2015-04-19T09:36:57Z</time>
      </trkpt>
      <trkpt lat="43.24027" lon="6.38956">
        <ele>267.2</ele>
        <time>2015-04-19T09:37:30Z</time>
      </trkpt>
      <trkpt lat="43.24027" lon="6.38957">
        <ele>267.2</ele>
        <time>2015-04-19T09:37:31Z</time>
      </trkpt>
      <trkpt lat="43.2402" lon="6.39002">
        <ele>270.4</ele>
        <time>2015-04-19T09:38:13Z</time>
      </trkpt>
      <trkpt lat="43.24007" lon="6.39019">
        <ele>272.1</ele>
        <time>2015-04-19T09:38:36Z</time>
      </trkpt>
      <trkpt lat="43.24007" lon="6.3902">
        <ele>272.1</ele>
        <time>2015-04-19T09:38:37Z</time>
      </trkpt>
      <trkpt lat="43.23982" lon="6.39053">
        <ele>276.1</ele>
        <time>2015-04-19T09:39:24Z</time>
      </trkpt>
      <trkpt lat="43.23967" lon="6.39064">
        <ele>279.4</ele>
        <time>2015-04-19T09:39:49Z</time>
      </trkpt>
      <trkpt lat="43.23966" lon="6.39064">
        <ele>279.4</ele>
        <time>2015-04-19T09:39:50Z</time>
      </trkpt>
      <trkpt lat="43.23936" lon="6.39087">
        <ele>283.3</ele>
        <time>2015-04-19T09:40:36Z</time>
      </trkpt>
      <trkpt lat="43.2394" lon="6.39111">
        <ele>283.8</ele>
        <time>2015-04-19T09:41:00Z</time>
      </trkpt>
      <trkpt lat="43.23941" lon="6.39112">
        <ele>283.8</ele>
        <time>2015-04-19T09:41:01Z</time>
      </trkpt>
      <trkpt lat="43.23938" lon="6.39158">
        <ele>282.7</ele>
        <time>2015-04-19T09:41:35Z</time>
      </trkpt>
      <trkpt lat="43.23931" lon="6.39179">
        <ele>283.7</ele>
        <time>2015-04-19T09:41:54Z</time>
      </trkpt>
      <trkpt lat="43.23929" lon="6.39203">
        <ele>285</ele>
        <time>2015-04-19T09:42:15Z</time>
      </trkpt>
      <trkpt lat="43.23929" lon="6.39204">
        <ele>285</ele>
        <time>2015-04-19T09:42:16Z</time>
      </trkpt>
      <trkpt lat="43.23936" lon="6.39251">
        <ele>289.3</ele>
        <time>2015-04-19T09:42:57Z</time>
      </trkpt>
      <trkpt lat="43.23933" lon="6.39274">
        <ele>290.9</ele>
        <time>2015-04-19T09:43:16Z</time>
      </trkpt>
      <trkpt lat="43.23932" lon="6.39275">
        <ele>290.9</ele>
        <time>2015-04-19T09:43:17Z</time>
      </trkpt>
      <trkpt lat="43.23948" lon="6.39316">
        <ele>302.4</ele>
        <time>2015-04-19T09:45:03Z</time>
      </trkpt>
      <trkpt lat="43.23947" lon="6.39317">
        <ele>302.4</ele>
        <time>2015-04-19T09:45:04Z</time>
      </trkpt>
      <trkpt lat="43.23959" lon="6.39335">
        <ele>309.9</ele>
        <time>2015-04-19T09:46:30Z</time>
      </trkpt>
      <trkpt lat="43.2396" lon="6.39383">
        <ele>323.8</ele>
        <time>2015-04-19T09:48:05Z</time>
      </trkpt>
      <trkpt lat="43.2396" lon="6.39384">
        <ele>323.8</ele>
        <time>2015-04-19T09:48:06Z</time>
      </trkpt>
      <trkpt lat="43.23978" lon="6.39424">
        <ele>334.2</ele>
        <time>2015-04-19T09:49:26Z</time>
      </trkpt>
      <trkpt lat="43.23978" lon="6.39425">
        <ele>334.2</ele>
        <time>2015-04-19T09:49:27Z</time>
      </trkpt>
      <trkpt lat="43.24001" lon="6.3946">
        <ele>343.4</ele>
        <time>2015-04-19T09:50:40Z</time>
      </trkpt>
      <trkpt lat="43.24002" lon="6.3946">
        <ele>343.4</ele>
        <time>2015-04-19T09:50:41Z</time>
      </trkpt>
      <trkpt lat="43.23999" lon="6.39506">
        <ele>350.3</ele>
        <time>2015-04-19T09:51:47Z</time>
      </trkpt>
      <trkpt lat="43.23999" lon="6.39507">
        <ele>350.3</ele>
        <time>2015-04-19T09:51:48Z</time>
      </trkpt>
      <trkpt lat="43.24008" lon="6.39544">
        <ele>357.3</ele>
        <time>2015-04-19T09:52:48Z</time>
      </trkpt>
      <trkpt lat="43.24009" lon="6.39545">
        <ele>357.3</ele>
        <time>2015-04-19T09:52:49Z</time>
      </trkpt>
      <trkpt lat="43.24027" lon="6.39584">
        <ele>363</ele>
        <time>2015-04-19T09:53:38Z</time>
      </trkpt>
      <trkpt lat="43.24027" lon="6.39608">
        <ele>366.8</ele>
        <time>2015-04-19T09:54:04Z</time>
      </trkpt>
      <trkpt lat="43.24027" lon="6.3961">
        <ele>366.8</ele>
        <time>2015-04-19T09:54:05Z</time>
      </trkpt>
      <trkpt lat="43.24" lon="6.39639">
        <ele>373.3</ele>
        <time>2015-04-19T09:55:08Z</time>
      </trkpt>
      <trkpt lat="43.23999" lon="6.39639">
        <ele>373.3</ele>
        <time>2015-04-19T09:55:09Z</time>
      </trkpt>
      <trkpt lat="43.23966" lon="6.39648">
        <ele>375.2</ele>
        <time>2015-04-19T09:55:51Z</time>
      </trkpt>
      <trkpt lat="43.23949" lon="6.39653">
        <ele>376.1</ele>
        <time>2015-04-19T09:56:10Z</time>
      </trkpt>
      <trkpt lat="43.23949" lon="6.39654">
        <ele>376.1</ele>
        <time>2015-04-19T09:56:11Z</time>
      </trkpt>
      <trkpt lat="43.2392" lon="6.39681">
        <ele>377.6</ele>
        <time>2015-04-19T09:56:51Z</time>
      </trkpt>
      <trkpt lat="43.23911" lon="6.39701">
        <ele>375.8</ele>
        <time>2015-04-19T09:57:11Z</time>
      </trkpt>
      <trkpt lat="43.2391" lon="6.39705">
        <ele>375.8</ele>
        <time>2015-04-19T09:57:12Z</time>
      </trkpt>
      <trkpt lat="43.23891" lon="6.39739">
        <ele>374.8</ele>
        <time>2015-04-19T09:57:46Z</time>
      </trkpt>
      <trkpt lat="43.23883" lon="6.3976">
        <ele>372.2</ele>
        <time>2015-04-19T09:58:07Z</time>
      </trkpt>
      <trkpt lat="43.23872" lon="6.39777">
        <ele>371.9</ele>
        <time>2015-04-19T09:58:52Z</time>
      </trkpt>
      <trkpt lat="43.2387" lon="6.39778">
        <ele>371.9</ele>
        <time>2015-04-19T09:58:53Z</time>
      </trkpt>
      <trkpt lat="43.23843" lon="6.39804">
        <ele>370.3</ele>
        <time>2015-04-19T09:59:26Z</time>
      </trkpt>
      <trkpt lat="43.23827" lon="6.39815">
        <ele>369.1</ele>
        <time>2015-04-19T09:59:44Z</time>
      </trkpt>
      <trkpt lat="43.2381" lon="6.39809">
        <ele>371.1</ele>
        <time>2015-04-19T10:00:08Z</time>
      </trkpt>
      <trkpt lat="43.2381" lon="6.39809">
        <ele>371.1</ele>
        <time>2015-04-19T10:00:09Z</time>
      </trkpt>
      <trkpt lat="43.23775" lon="6.39809">
        <ele>374.3</ele>
        <time>2015-04-19T10:00:53Z</time>
      </trkpt>
      <trkpt lat="43.23759" lon="6.39819">
        <ele>374.5</ele>
        <time>2015-04-19T10:01:22Z</time>
      </trkpt>
      <trkpt lat="43.23758" lon="6.39819">
        <ele>374.5</ele>
        <time>2015-04-19T10:01:23Z</time>
      </trkpt>
      <trkpt lat="43.23725" lon="6.39834">
        <ele>375.3</ele>
        <time>2015-04-19T10:02:14Z</time>
      </trkpt>
      <trkpt lat="43.23709" lon="6.39843">
        <ele>375.7</ele>
        <time>2015-04-19T10:02:35Z</time>
      </trkpt>
      <trkpt lat="43.23708" lon="6.39843">
        <ele>375.7</ele>
        <time>2015-04-19T10:02:36Z</time>
      </trkpt>
      <trkpt lat="43.23675" lon="6.39854">
        <ele>376.6</ele>
        <time>2015-04-19T10:03:17Z</time>
      </trkpt>
      <trkpt lat="43.2366" lon="6.39866">
        <ele>378.5</ele>
        <time>2015-04-19T10:03:40Z</time>
      </trkpt>
      <trkpt lat="43.23659" lon="6.39866">
        <ele>378.5</ele>
        <time>2015-04-19T10:03:41Z</time>
      </trkpt>
      <trkpt lat="43.23633" lon="6.39893">
        <ele>383.6</ele>
        <time>2015-04-19T10:04:51Z</time>
      </trkpt>
      <trkpt lat="43.23632" lon="6.39895">
        <ele>383.6</ele>
        <time>2015-04-19T10:04:52Z</time>
      </trkpt>
      <trkpt lat="43.23607" lon="6.39924">
        <ele>389.4</ele>
        <time>2015-04-19T10:05:40Z</time>
      </trkpt>
      <trkpt lat="43.2359" lon="6.39919">
        <ele>390</ele>
        <time>2015-04-19T10:06:24Z</time>
      </trkpt>
      <trkpt lat="43.23589" lon="6.39919">
        <ele>390</ele>
        <time>2015-04-19T10:06:25Z</time>
      </trkpt>
      <trkpt lat="43.23555" lon="6.39914">
        <ele>384.1</ele>
        <time>2015-04-19T10:07:14Z</time>
      </trkpt>
      <trkpt lat="43.23539" lon="6.39905">
        <ele>381.7</ele>
        <time>2015-04-19T10:07:47Z</time>
      </trkpt>
      <trkpt lat="43.23538" lon="6.39905">
        <ele>381.7</ele>
        <time>2015-04-19T10:07:48Z</time>
      </trkpt>
      <trkpt lat="43.23509" lon="6.39906">
        <ele>384.7</ele>
        <time>2015-04-19T10:08:52Z</time>
      </trkpt>
      <trkpt lat="43.23508" lon="6.39907">
        <ele>384.7</ele>
        <time>2015-04-19T10:08:53Z</time>
      </trkpt>
      <trkpt lat="43.23497" lon="6.39944">
        <ele>391.2</ele>
        <time>2015-04-19T10:10:20Z</time>
      </trkpt>
      <trkpt lat="43.23498" lon="6.39944">
        <ele>391.2</ele>
        <time>2015-04-19T10:10:21Z</time>
      </trkpt>
      <trkpt lat="43.23502" lon="6.39993">
        <ele>400.3</ele>
        <time>2015-04-19T10:12:00Z</time>
      </trkpt>
      <trkpt lat="43.23502" lon="6.39993">
        <ele>400.3</ele>
        <time>2015-04-19T10:12:01Z</time>
      </trkpt>
      <trkpt lat="43.23502" lon="6.40018">
        <ele>407.7</ele>
        <time>2015-04-19T10:13:23Z</time>
      </trkpt>
      <trkpt lat="43.2351" lon="6.39999">
        <ele>408</ele>
        <time>2015-04-19T10:14:35Z</time>
      </trkpt>
      <trkpt lat="43.23513" lon="6.40002">
        <ele>408.6</ele>
        <time>2015-04-19T10:14:36Z</time>
      </trkpt>
      <trkpt lat="43.23497" lon="6.40028">
        <ele>412.7</ele>
        <time>2015-04-19T10:15:37Z</time>
      </trkpt>
      <trkpt lat="43.23497" lon="6.40028">
        <ele>412.7</ele>
        <time>2015-04-19T10:15:38Z</time>
      </trkpt>
      <trkpt lat="43.23509" lon="6.40048">
        <ele>417</ele>
        <time>2015-04-19T10:18:53Z</time>
      </trkpt>
      <trkpt lat="43.23491" lon="6.40038">
        <ele>418.2</ele>
        <time>2015-04-19T10:19:55Z</time>
      </trkpt>
      <trkpt lat="43.23525" lon="6.40024">
        <ele>408.9</ele>
        <time>2015-04-19T10:26:59Z</time>
      </trkpt>
      <trkpt lat="43.23526" lon="6.40024">
        <ele>408.9</ele>
        <time>2015-04-19T10:27:00Z</time>
      </trkpt>
      <trkpt lat="43.23544" lon="6.40027">
        <ele>409.7</ele>
        <time>2015-04-19T10:28:14Z</time>
      </trkpt>
      <trkpt lat="43.23541" lon="6.40014">
        <ele>409.6</ele>
        <time>2015-04-19T10:29:38Z</time>
      </trkpt>
      <trkpt lat="43.23539" lon="6.40014">
        <ele>409.6</ele>
        <time>2015-04-19T10:29:39Z</time>
      </trkpt>
      <trkpt lat="43.23506" lon="6.40019">
        <ele>407</ele>
        <time>2015-04-19T10:55:20Z</time>
      </trkpt>
      <trkpt lat="43.235" lon="6.40013">
        <ele>407.3</ele>
        <time>2015-04-19T10:55:28Z</time>
      </trkpt>
      <trkpt lat="43.23489" lon="6.40029">
        <ele>414.2</ele>
        <time>2015-04-19T10:58:47Z</time>
      </trkpt>
      <trkpt lat="43.23463" lon="6.39997">
        <ele>416.4</ele>
        <time>2015-04-19T10:59:40Z</time>
      </trkpt>
      <trkpt lat="43.23451" lon="6.3998">
        <ele>419.1</ele>
        <time>2015-04-19T11:00:04Z</time>
      </trkpt>
      <trkpt lat="43.23451" lon="6.39979">
        <ele>419.1</ele>
        <time>2015-04-19T11:00:05Z</time>
      </trkpt>
      <trkpt lat="43.23428" lon="6.39946">
        <ele>423</ele>
        <time>2015-04-19T11:01:17Z</time>
      </trkpt>
      <trkpt lat="43.23426" lon="6.39945">
        <ele>423</ele>
        <time>2015-04-19T11:01:18Z</time>
      </trkpt>
      <trkpt lat="43.23422" lon="6.39917">
        <ele>423.3</ele>
        <time>2015-04-19T11:01:51Z</time>
      </trkpt>
      <trkpt lat="43.23429" lon="6.39896">
        <ele>423.3</ele>
        <time>2015-04-19T11:02:07Z</time>
      </trkpt>
      <trkpt lat="43.23442" lon="6.39879">
        <ele>422.6</ele>
        <time>2015-04-19T11:02:33Z</time>
      </trkpt>
      <trkpt lat="43.23444" lon="6.3988">
        <ele>422.6</ele>
        <time>2015-04-19T11:02:34Z</time>
      </trkpt>
      <trkpt lat="43.23438" lon="6.39835">
        <ele>425.3</ele>
        <time>2015-04-19T11:03:40Z</time>
      </trkpt>
      <trkpt lat="43.23438" lon="6.39833">
        <ele>425.3</ele>
        <time>2015-04-19T11:03:41Z</time>
      </trkpt>
      <trkpt lat="43.23429" lon="6.39789">
        <ele>429.5</ele>
        <time>2015-04-19T11:04:12Z</time>
      </trkpt>
      <trkpt lat="43.23428" lon="6.39765">
        <ele>431.4</ele>
        <time>2015-04-19T11:04:29Z</time>
      </trkpt>
      <trkpt lat="43.23422" lon="6.39743">
        <ele>433.2</ele>
        <time>2015-04-19T11:04:52Z</time>
      </trkpt>
      <trkpt lat="43.23421" lon="6.39742">
        <ele>433.2</ele>
        <time>2015-04-19T11:04:53Z</time>
      </trkpt>
      <trkpt lat="43.23389" lon="6.39724">
        <ele>437.9</ele>
        <time>2015-04-19T11:05:49Z</time>
      </trkpt>
      <trkpt lat="43.23384" lon="6.39701">
        <ele>439.7</ele>
        <time>2015-04-19T11:06:22Z</time>
      </trkpt>
      <trkpt lat="43.23384" lon="6.39699">
        <ele>439.7</ele>
        <time>2015-04-19T11:06:23Z</time>
      </trkpt>
      <trkpt lat="43.2338" lon="6.39652">
        <ele>444.4</ele>
        <time>2015-04-19T11:07:14Z</time>
      </trkpt>
      <trkpt lat="43.23368" lon="6.39635">
        <ele>446</ele>
        <time>2015-04-19T11:07:33Z</time>
      </trkpt>
      <trkpt lat="43.23368" lon="6.39635">
        <ele>446</ele>
        <time>2015-04-19T11:07:34Z</time>
      </trkpt>
      <trkpt lat="43.23355" lon="6.39592">
        <ele>451.4</ele>
        <time>2015-04-19T11:08:20Z</time>
      </trkpt>
      <trkpt lat="43.23349" lon="6.39569">
        <ele>453.1</ele>
        <time>2015-04-19T11:08:40Z</time>
      </trkpt>
      <trkpt lat="43.23349" lon="6.39568">
        <ele>453.1</ele>
        <time>2015-04-19T11:08:41Z</time>
      </trkpt>
      <trkpt lat="43.23329" lon="6.3953">
        <ele>458.6</ele>
        <time>2015-04-19T11:09:26Z</time>
      </trkpt>
      <trkpt lat="43.23315" lon="6.39517">
        <ele>461.2</ele>
        <time>2015-04-19T11:09:47Z</time>
      </trkpt>
      <trkpt lat="43.23314" lon="6.39517">
        <ele>461.2</ele>
        <time>2015-04-19T11:09:48Z</time>
      </trkpt>
      <trkpt lat="43.23287" lon="6.39488">
        <ele>464.9</ele>
        <time>2015-04-19T11:10:30Z</time>
      </trkpt>
      <trkpt lat="43.23273" lon="6.39473">
        <ele>466.6</ele>
        <time>2015-04-19T11:10:54Z</time>
      </trkpt>
      <trkpt lat="43.23273" lon="6.39471">
        <ele>466.6</ele>
        <time>2015-04-19T11:10:55Z</time>
      </trkpt>
      <trkpt lat="43.23245" lon="6.39448">
        <ele>472.6</ele>
        <time>2015-04-19T11:11:39Z</time>
      </trkpt>
      <trkpt lat="43.23227" lon="6.39451">
        <ele>475</ele>
        <time>2015-04-19T11:12:05Z</time>
      </trkpt>
      <trkpt lat="43.23226" lon="6.39452">
        <ele>475</ele>
        <time>2015-04-19T11:12:06Z</time>
      </trkpt>
      <trkpt lat="43.23217" lon="6.39407">
        <ele>477</ele>
        <time>2015-04-19T11:12:45Z</time>
      </trkpt>
      <trkpt lat="43.23206" lon="6.39389">
        <ele>479.2</ele>
        <time>2015-04-19T11:13:04Z</time>
      </trkpt>
      <trkpt lat="43.23191" lon="6.39376">
        <ele>481.2</ele>
        <time>2015-04-19T11:13:22Z</time>
      </trkpt>
      <trkpt lat="43.2319" lon="6.39376">
        <ele>481.2</ele>
        <time>2015-04-19T11:13:23Z</time>
      </trkpt>
      <trkpt lat="43.23171" lon="6.39342">
        <ele>483.2</ele>
        <time>2015-04-19T11:13:57Z</time>
      </trkpt>
      <trkpt lat="43.23159" lon="6.39324">
        <ele>484.8</ele>
        <time>2015-04-19T11:14:18Z</time>
      </trkpt>
      <trkpt lat="43.23142" lon="6.39319">
        <ele>489.7</ele>
        <time>2015-04-19T11:14:45Z</time>
      </trkpt>
      <trkpt lat="43.23141" lon="6.39318">
        <ele>489.7</ele>
        <time>2015-04-19T11:14:46Z</time>
      </trkpt>
      <trkpt lat="43.23128" lon="6.39275">
        <ele>493.3</ele>
        <time>2015-04-19T11:15:24Z</time>
      </trkpt>
      <trkpt lat="43.23123" lon="6.39252">
        <ele>495.2</ele>
        <time>2015-04-19T11:15:48Z</time>
      </trkpt>
      <trkpt lat="43.23124" lon="6.39249">
        <ele>495.2</ele>
        <time>2015-04-19T11:15:49Z</time>
      </trkpt>
      <trkpt lat="43.23108" lon="6.3921">
        <ele>499.4</ele>
        <time>2015-04-19T11:16:27Z</time>
      </trkpt>
      <trkpt lat="43.23106" lon="6.39188">
        <ele>501</ele>
        <time>2015-04-19T11:16:42Z</time>
      </trkpt>
      <trkpt lat="43.23097" lon="6.39167">
        <ele>503.3</ele>
        <time>2015-04-19T11:17:03Z</time>
      </trkpt>
      <trkpt lat="43.23097" lon="6.39166">
        <ele>503.3</ele>
        <time>2015-04-19T11:17:04Z</time>
      </trkpt>
      <trkpt lat="43.23077" lon="6.39129">
        <ele>506.2</ele>
        <time>2015-04-19T11:20:06Z</time>
      </trkpt>
      <trkpt lat="43.23076" lon="6.39128">
        <ele>506.2</ele>
        <time>2015-04-19T11:20:07Z</time>
      </trkpt>
      <trkpt lat="43.23059" lon="6.39087">
        <ele>504.7</ele>
        <time>2015-04-19T11:21:15Z</time>
      </trkpt>
      <trkpt lat="43.23059" lon="6.39086">
        <ele>504.7</ele>
        <time>2015-04-19T11:21:16Z</time>
      </trkpt>
      <trkpt lat="43.23049" lon="6.39041">
        <ele>502.6</ele>
        <time>2015-04-19T11:21:46Z</time>
      </trkpt>
      <trkpt lat="43.23044" lon="6.39019">
        <ele>501.1</ele>
        <time>2015-04-19T11:22:03Z</time>
      </trkpt>
      <trkpt lat="43.23042" lon="6.38994">
        <ele>499.8</ele>
        <time>2015-04-19T11:22:18Z</time>
      </trkpt>
      <trkpt lat="43.23042" lon="6.38993">
        <ele>499.8</ele>
        <time>2015-04-19T11:22:19Z</time>
      </trkpt>
      <trkpt lat="43.2304" lon="6.38946">
        <ele>497.7</ele>
        <time>2015-04-19T11:22:51Z</time>
      </trkpt>
      <trkpt lat="43.23036" lon="6.38922">
        <ele>496.2</ele>
        <time>2015-04-19T11:23:06Z</time>
      </trkpt>
      <trkpt lat="43.23033" lon="6.38898">
        <ele>495.6</ele>
        <time>2015-04-19T11:23:24Z</time>
      </trkpt>
      <trkpt lat="43.23033" lon="6.38897">
        <ele>495.6</ele>
        <time>2015-04-19T11:23:25Z</time>
      </trkpt>
      <trkpt lat="43.23027" lon="6.38852">
        <ele>492.4</ele>
        <time>2015-04-19T11:23:58Z</time>
      </trkpt>
      <trkpt lat="43.2302" lon="6.38831">
        <ele>491.2</ele>
        <time>2015-04-19T11:24:12Z</time>
      </trkpt>
      <trkpt lat="43.23008" lon="6.38813">
        <ele>490.9</ele>
        <time>2015-04-19T11:24:29Z</time>
      </trkpt>
      <trkpt lat="43.23008" lon="6.38812">
        <ele>490.9</ele>
        <time>2015-04-19T11:24:30Z</time>
      </trkpt>
      <trkpt lat="43.22986" lon="6.38778">
        <ele>489.5</ele>
        <time>2015-04-19T11:25:01Z</time>
      </trkpt>
      <trkpt lat="43.22974" lon="6.3876">
        <ele>490.8</ele>
        <time>2015-04-19T11:25:16Z</time>
      </trkpt>
      <trkpt lat="43.22964" lon="6.3874">
        <ele>490.6</ele>
        <time>2015-04-19T11:25:31Z</time>
      </trkpt>
      <trkpt lat="43.22963" lon="6.38738">
        <ele>490.6</ele>
        <time>2015-04-19T11:25:32Z</time>
      </trkpt>
      <trkpt lat="43.2295" lon="6.38697">
        <ele>490.1</ele>
        <time>2015-04-19T11:26:04Z</time>
      </trkpt>
      <trkpt lat="43.22948" lon="6.38673">
        <ele>488.3</ele>
        <time>2015-04-19T11:26:59Z</time>
      </trkpt>
      <trkpt lat="43.22948" lon="6.38672">
        <ele>488.3</ele>
        <time>2015-04-19T11:27:00Z</time>
      </trkpt>
      <trkpt lat="43.22942" lon="6.38627">
        <ele>485.6</ele>
        <time>2015-04-19T11:27:30Z</time>
      </trkpt>
      <trkpt lat="43.2294" lon="6.38603">
        <ele>484.7</ele>
        <time>2015-04-19T11:27:45Z</time>
      </trkpt>
      <trkpt lat="43.22937" lon="6.38579">
        <ele>483.3</ele>
        <time>2015-04-19T11:28:04Z</time>
      </trkpt>
      <trkpt lat="43.22936" lon="6.38577">
        <ele>483.3</ele>
        <time>2015-04-19T11:28:05Z</time>
      </trkpt>
      <trkpt lat="43.22921" lon="6.38535">
        <ele>482.3</ele>
        <time>2015-04-19T11:28:36Z</time>
      </trkpt>
      <trkpt lat="43.22915" lon="6.38513">
        <ele>481.4</ele>
        <time>2015-04-19T11:28:51Z</time>
      </trkpt>
      <trkpt lat="43.22905" lon="6.38494">
        <ele>480.5</ele>
        <time>2015-04-19T11:29:06Z</time>
      </trkpt>
      <trkpt lat="43.22905" lon="6.38492">
        <ele>480.4</ele>
        <time>2015-04-19T11:29:07Z</time>
      </trkpt>
      <trkpt lat="43.22886" lon="6.38453">
        <ele>479.1</ele>
        <time>2015-04-19T11:29:33Z</time>
      </trkpt>
      <trkpt lat="43.22887" lon="6.38429">
        <ele>477.8</ele>
        <time>2015-04-19T11:29:50Z</time>
      </trkpt>
      <trkpt lat="43.22896" lon="6.3841">
        <ele>476.9</ele>
        <time>2015-04-19T11:30:06Z</time>
      </trkpt>
      <trkpt lat="43.22913" lon="6.38403">
        <ele>475.2</ele>
        <time>2015-04-19T11:30:24Z</time>
      </trkpt>
      <trkpt lat="43.22914" lon="6.38402">
        <ele>475.2</ele>
        <time>2015-04-19T11:30:25Z</time>
      </trkpt>
      <trkpt lat="43.22932" lon="6.38368">
        <ele>473.3</ele>
        <time>2015-04-19T11:30:55Z</time>
      </trkpt>
      <trkpt lat="43.22937" lon="6.38346">
        <ele>471.9</ele>
        <time>2015-04-19T11:31:11Z</time>
      </trkpt>
      <trkpt lat="43.22944" lon="6.38324">
        <ele>469.7</ele>
        <time>2015-04-19T11:31:28Z</time>
      </trkpt>
      <trkpt lat="43.22945" lon="6.38323">
        <ele>469.7</ele>
        <time>2015-04-19T11:31:29Z</time>
      </trkpt>
      <trkpt lat="43.22962" lon="6.38283">
        <ele>467.3</ele>
        <time>2015-04-19T11:32:09Z</time>
      </trkpt>
      <trkpt lat="43.22945" lon="6.38277">
        <ele>464.4</ele>
        <time>2015-04-19T11:33:18Z</time>
      </trkpt>
      <trkpt lat="43.22944" lon="6.38277">
        <ele>464.4</ele>
        <time>2015-04-19T11:33:19Z</time>
      </trkpt>
      <trkpt lat="43.22919" lon="6.38253">
        <ele>455.5</ele>
        <time>2015-04-19T11:34:25Z</time>
      </trkpt>
      <trkpt lat="43.22919" lon="6.38252">
        <ele>455.5</ele>
        <time>2015-04-19T11:34:26Z</time>
      </trkpt>
      <trkpt lat="43.22931" lon="6.38215">
        <ele>454.2</ele>
        <time>2015-04-19T11:36:28Z</time>
      </trkpt>
      <trkpt lat="43.22931" lon="6.38215">
        <ele>454.2</ele>
        <time>2015-04-19T11:36:29Z</time>
      </trkpt>
      <trkpt lat="43.22913" lon="6.38215">
        <ele>450.7</ele>
        <time>2015-04-19T11:37:52Z</time>
      </trkpt>
      <trkpt lat="43.22908" lon="6.38192">
        <ele>446.8</ele>
        <time>2015-04-19T11:41:52Z</time>
      </trkpt>
      <trkpt lat="43.22904" lon="6.38145">
        <ele>440.2</ele>
        <time>2015-04-19T11:42:34Z</time>
      </trkpt>
      <trkpt lat="43.22894" lon="6.38125">
        <ele>437.4</ele>
        <time>2015-04-19T11:42:54Z</time>
      </trkpt>
      <trkpt lat="43.22893" lon="6.38124">
        <ele>437.4</ele>
        <time>2015-04-19T11:42:55Z</time>
      </trkpt>
      <trkpt lat="43.22884" lon="6.38081">
        <ele>428.6</ele>
        <time>2015-04-19T11:43:46Z</time>
      </trkpt>
      <trkpt lat="43.22888" lon="6.38057">
        <ele>421.6</ele>
        <time>2015-04-19T11:44:29Z</time>
      </trkpt>
      <trkpt lat="43.22888" lon="6.38056">
        <ele>421.6</ele>
        <time>2015-04-19T11:44:30Z</time>
      </trkpt>
      <trkpt lat="43.22893" lon="6.38009">
        <ele>407.5</ele>
        <time>2015-04-19T11:45:45Z</time>
      </trkpt>
      <trkpt lat="43.22893" lon="6.38009">
        <ele>407.5</ele>
        <time>2015-04-19T11:45:46Z</time>
      </trkpt>
      <trkpt lat="43.22889" lon="6.37963">
        <ele>393.9</ele>
        <time>2015-04-19T11:46:59Z</time>
      </trkpt>
      <trkpt lat="43.22888" lon="6.37962">
        <ele>393.9</ele>
        <time>2015-04-19T11:47:00Z</time>
      </trkpt>
      <trkpt lat="43.22879" lon="6.37915">
        <ele>382</ele>
        <time>2015-04-19T11:48:07Z</time>
      </trkpt>
      <trkpt lat="43.22879" lon="6.37915">
        <ele>381.8</ele>
        <time>2015-04-19T11:48:08Z</time>
      </trkpt>
      <trkpt lat="43.22871" lon="6.3787">
        <ele>366.9</ele>
        <time>2015-04-19T11:49:30Z</time>
      </trkpt>
      <trkpt lat="43.2287" lon="6.37869">
        <ele>366.9</ele>
        <time>2015-04-19T11:49:31Z</time>
      </trkpt>
      <trkpt lat="43.22852" lon="6.3783">
        <ele>353.8</ele>
        <time>2015-04-19T11:50:55Z</time>
      </trkpt>
      <trkpt lat="43.22851" lon="6.37829">
        <ele>353.8</ele>
        <time>2015-04-19T11:50:56Z</time>
      </trkpt>
      <trkpt lat="43.22833" lon="6.37791">
        <ele>342.5</ele>
        <time>2015-04-19T11:51:59Z</time>
      </trkpt>
      <trkpt lat="43.22831" lon="6.3779">
        <ele>342.5</ele>
        <time>2015-04-19T11:52:00Z</time>
      </trkpt>
      <trkpt lat="43.22811" lon="6.37752">
        <ele>335</ele>
        <time>2015-04-19T11:52:40Z</time>
      </trkpt>
      <trkpt lat="43.22805" lon="6.3773">
        <ele>332.5</ele>
        <time>2015-04-19T11:52:59Z</time>
      </trkpt>
      <trkpt lat="43.22799" lon="6.37753">
        <ele>331</ele>
        <time>2015-04-19T11:54:10Z</time>
      </trkpt>
      <trkpt lat="43.22798" lon="6.37754">
        <ele>331</ele>
        <time>2015-04-19T11:54:11Z</time>
      </trkpt>
      <trkpt lat="43.22772" lon="6.37784">
        <ele>330.1</ele>
        <time>2015-04-19T11:54:41Z</time>
      </trkpt>
      <trkpt lat="43.22756" lon="6.37796">
        <ele>329.9</ele>
        <time>2015-04-19T11:54:59Z</time>
      </trkpt>
      <trkpt lat="43.22745" lon="6.37776">
        <ele>330.2</ele>
        <time>2015-04-19T11:55:15Z</time>
      </trkpt>
      <trkpt lat="43.22744" lon="6.37776">
        <ele>330.2</ele>
        <time>2015-04-19T11:55:16Z</time>
      </trkpt>
      <trkpt lat="43.2277" lon="6.37746">
        <ele>331.1</ele>
        <time>2015-04-19T11:55:52Z</time>
      </trkpt>
      <trkpt lat="43.22785" lon="6.37733">
        <ele>329.3</ele>
        <time>2015-04-19T11:56:14Z</time>
      </trkpt>
      <trkpt lat="43.22788" lon="6.37709">
        <ele>328</ele>
        <time>2015-04-19T11:56:51Z</time>
      </trkpt>
      <trkpt lat="43.22789" lon="6.37709">
        <ele>328</ele>
        <time>2015-04-19T11:56:52Z</time>
      </trkpt>
      <trkpt lat="43.22803" lon="6.37666">
        <ele>326.4</ele>
        <time>2015-04-19T11:57:44Z</time>
      </trkpt>
      <trkpt lat="43.2281" lon="6.37644">
        <ele>325.3</ele>
        <time>2015-04-19T11:58:12Z</time>
      </trkpt>
      <trkpt lat="43.2281" lon="6.37643">
        <ele>325.3</ele>
        <time>2015-04-19T11:58:13Z</time>
      </trkpt>
      <trkpt lat="43.22819" lon="6.37598">
        <ele>324.5</ele>
        <time>2015-04-19T11:58:47Z</time>
      </trkpt>
      <trkpt lat="43.22827" lon="6.37577">
        <ele>322.7</ele>
        <time>2015-04-19T11:59:11Z</time>
      </trkpt>
      <trkpt lat="43.22834" lon="6.37555">
        <ele>322.1</ele>
        <time>2015-04-19T11:59:29Z</time>
      </trkpt>
      <trkpt lat="43.22833" lon="6.37553">
        <ele>322.1</ele>
        <time>2015-04-19T11:59:30Z</time>
      </trkpt>
      <trkpt lat="43.22845" lon="6.3751">
        <ele>321.5</ele>
        <time>2015-04-19T12:00:07Z</time>
      </trkpt>
      <trkpt lat="43.22855" lon="6.3749">
        <ele>320.6</ele>
        <time>2015-04-19T12:00:25Z</time>
      </trkpt>
      <trkpt lat="43.22866" lon="6.37472">
        <ele>320.6</ele>
        <time>2015-04-19T12:00:42Z</time>
      </trkpt>
      <trkpt lat="43.22867" lon="6.37471">
        <ele>320.6</ele>
        <time>2015-04-19T12:00:43Z</time>
      </trkpt>
      <trkpt lat="43.22889" lon="6.37436">
        <ele>319.5</ele>
        <time>2015-04-19T12:01:38Z</time>
      </trkpt>
      <trkpt lat="43.22896" lon="6.37413">
        <ele>319</ele>
        <time>2015-04-19T12:02:01Z</time>
      </trkpt>
      <trkpt lat="43.22897" lon="6.37413">
        <ele>319</ele>
        <time>2015-04-19T12:02:02Z</time>
      </trkpt>
      <trkpt lat="43.22908" lon="6.37369">
        <ele>319.2</ele>
        <time>2015-04-19T12:02:38Z</time>
      </trkpt>
      <trkpt lat="43.22918" lon="6.37349">
        <ele>318.6</ele>
        <time>2015-04-19T12:02:55Z</time>
      </trkpt>
      <trkpt lat="43.22924" lon="6.37326">
        <ele>318.3</ele>
        <time>2015-04-19T12:03:18Z</time>
      </trkpt>
      <trkpt lat="43.22923" lon="6.37325">
        <ele>318.3</ele>
        <time>2015-04-19T12:03:19Z</time>
      </trkpt>
      <trkpt lat="43.22937" lon="6.37282">
        <ele>317.1</ele>
        <time>2015-04-19T12:04:25Z</time>
      </trkpt>
      <trkpt lat="43.22937" lon="6.37281">
        <ele>317.1</ele>
        <time>2015-04-19T12:04:26Z</time>
      </trkpt>
      <trkpt lat="43.2294" lon="6.37235">
        <ele>316.3</ele>
        <time>2015-04-19T12:05:09Z</time>
      </trkpt>
      <trkpt lat="43.22944" lon="6.37211">
        <ele>317.2</ele>
        <time>2015-04-19T12:05:35Z</time>
      </trkpt>
      <trkpt lat="43.22944" lon="6.37211">
        <ele>317.2</ele>
        <time>2015-04-19T12:05:36Z</time>
      </trkpt>
      <trkpt lat="43.22958" lon="6.37169">
        <ele>316.9</ele>
        <time>2015-04-19T12:06:24Z</time>
      </trkpt>
      <trkpt lat="43.22972" lon="6.37153">
        <ele>315.9</ele>
        <time>2015-04-19T12:06:39Z</time>
      </trkpt>
      <trkpt lat="43.22974" lon="6.37151">
        <ele>315.9</ele>
        <time>2015-04-19T12:06:40Z</time>
      </trkpt>
      <trkpt lat="43.23" lon="6.37124">
        <ele>314.6</ele>
        <time>2015-04-19T12:07:09Z</time>
      </trkpt>
      <trkpt lat="43.23014" lon="6.37111">
        <ele>313.1</ele>
        <time>2015-04-19T12:07:30Z</time>
      </trkpt>
      <trkpt lat="43.23029" lon="6.37097">
        <ele>312.1</ele>
        <time>2015-04-19T12:07:52Z</time>
      </trkpt>
      <trkpt lat="43.23029" lon="6.37096">
        <ele>312.1</ele>
        <time>2015-04-19T12:07:53Z</time>
      </trkpt>
      <trkpt lat="43.23063" lon="6.37084">
        <ele>311.4</ele>
        <time>2015-04-19T12:08:42Z</time>
      </trkpt>
      <trkpt lat="43.23076" lon="6.37066">
        <ele>310.7</ele>
        <time>2015-04-19T12:09:00Z</time>
      </trkpt>
      <trkpt lat="43.23076" lon="6.37065">
        <ele>310.7</ele>
        <time>2015-04-19T12:09:01Z</time>
      </trkpt>
      <trkpt lat="43.23099" lon="6.37031">
        <ele>306.1</ele>
        <time>2015-04-19T12:09:51Z</time>
      </trkpt>
      <trkpt lat="43.23114" lon="6.37019">
        <ele>304.3</ele>
        <time>2015-04-19T12:10:11Z</time>
      </trkpt>
      <trkpt lat="43.23115" lon="6.37018">
        <ele>304.3</ele>
        <time>2015-04-19T12:10:12Z</time>
      </trkpt>
      <trkpt lat="43.23144" lon="6.36995">
        <ele>303</ele>
        <time>2015-04-19T12:11:19Z</time>
      </trkpt>
      <trkpt lat="43.23145" lon="6.36994">
        <ele>303</ele>
        <time>2015-04-19T12:11:20Z</time>
      </trkpt>
      <trkpt lat="43.23164" lon="6.3696">
        <ele>302.8</ele>
        <time>2015-04-19T12:11:56Z</time>
      </trkpt>
      <trkpt lat="43.23179" lon="6.36947">
        <ele>301.4</ele>
        <time>2015-04-19T12:12:13Z</time>
      </trkpt>
      <trkpt lat="43.2319" lon="6.36928">
        <ele>300.6</ele>
        <time>2015-04-19T12:12:33Z</time>
      </trkpt>
      <trkpt lat="43.23191" lon="6.36927">
        <ele>300.6</ele>
        <time>2015-04-19T12:12:34Z</time>
      </trkpt>
      <trkpt lat="43.23213" lon="6.36891">
        <ele>299.6</ele>
        <time>2015-04-19T12:14:41Z</time>
      </trkpt>
      <trkpt lat="43.23213" lon="6.36891">
        <ele>299.6</ele>
        <time>2015-04-19T12:14:42Z</time>
      </trkpt>
      <trkpt lat="43.23241" lon="6.36863">
        <ele>297.5</ele>
        <time>2015-04-19T12:15:38Z</time>
      </trkpt>
      <trkpt lat="43.23258" lon="6.36862">
        <ele>297.5</ele>
        <time>2015-04-19T12:15:55Z</time>
      </trkpt>
      <trkpt lat="43.2326" lon="6.36863">
        <ele>297.5</ele>
        <time>2015-04-19T12:15:56Z</time>
      </trkpt>
      <trkpt lat="43.23292" lon="6.36852">
        <ele>298.5</ele>
        <time>2015-04-19T12:16:49Z</time>
      </trkpt>
      <trkpt lat="43.23306" lon="6.36838">
        <ele>301.8</ele>
        <time>2015-04-19T12:17:26Z</time>
      </trkpt>
      <trkpt lat="43.23308" lon="6.36839">
        <ele>301.8</ele>
        <time>2015-04-19T12:17:27Z</time>
      </trkpt>
      <trkpt lat="43.23336" lon="6.36813">
        <ele>300.8</ele>
        <time>2015-04-19T12:18:09Z</time>
      </trkpt>
      <trkpt lat="43.2334" lon="6.3679">
        <ele>300.6</ele>
        <time>2015-04-19T12:18:26Z</time>
      </trkpt>
      <trkpt lat="43.23351" lon="6.36771">
        <ele>300.4</ele>
        <time>2015-04-19T12:18:46Z</time>
      </trkpt>
      <trkpt lat="43.23351" lon="6.3677">
        <ele>300.4</ele>
        <time>2015-04-19T12:18:47Z</time>
      </trkpt>
      <trkpt lat="43.23372" lon="6.36733">
        <ele>300</ele>
        <time>2015-04-19T12:19:38Z</time>
      </trkpt>
      <trkpt lat="43.23387" lon="6.3672">
        <ele>300</ele>
        <time>2015-04-19T12:19:58Z</time>
      </trkpt>
      <trkpt lat="43.23388" lon="6.36719">
        <ele>300</ele>
        <time>2015-04-19T12:19:59Z</time>
      </trkpt>
      <trkpt lat="43.23408" lon="6.36686">
        <ele>301.3</ele>
        <time>2015-04-19T12:20:33Z</time>
      </trkpt>
      <trkpt lat="43.23421" lon="6.36669">
        <ele>301</ele>
        <time>2015-04-19T12:20:51Z</time>
      </trkpt>
      <trkpt lat="43.23433" lon="6.36651">
        <ele>302.6</ele>
        <time>2015-04-19T12:21:18Z</time>
      </trkpt>
      <trkpt lat="43.23432" lon="6.3665">
        <ele>302.6</ele>
        <time>2015-04-19T12:21:19Z</time>
      </trkpt>
      <trkpt lat="43.23455" lon="6.36615">
        <ele>302.8</ele>
        <time>2015-04-19T12:22:07Z</time>
      </trkpt>
      <trkpt lat="43.23469" lon="6.366">
        <ele>301.7</ele>
        <time>2015-04-19T12:22:30Z</time>
      </trkpt>
      <trkpt lat="43.23469" lon="6.36599">
        <ele>301.7</ele>
        <time>2015-04-19T12:22:31Z</time>
      </trkpt>
      <trkpt lat="43.23483" lon="6.36557">
        <ele>303.7</ele>
        <time>2015-04-19T12:23:25Z</time>
      </trkpt>
      <trkpt lat="43.23493" lon="6.36538">
        <ele>301.5</ele>
        <time>2015-04-19T12:25:25Z</time>
      </trkpt>
      <trkpt lat="43.23494" lon="6.36538">
        <ele>301.5</ele>
        <time>2015-04-19T12:25:26Z</time>
      </trkpt>
      <trkpt lat="43.2349" lon="6.36497">
        <ele>303.1</ele>
        <time>2015-04-19T12:26:27Z</time>
      </trkpt>
      <trkpt lat="43.23489" lon="6.36496">
        <ele>303.1</ele>
        <time>2015-04-19T12:26:28Z</time>
      </trkpt>
      <trkpt lat="43.23463" lon="6.36467">
        <ele>303</ele>
        <time>2015-04-19T12:27:00Z</time>
      </trkpt>
      <trkpt lat="43.23452" lon="6.36449">
        <ele>303</ele>
        <time>2015-04-19T12:27:16Z</time>
      </trkpt>
      <trkpt lat="43.23441" lon="6.3643">
        <ele>303.4</ele>
        <time>2015-04-19T12:27:33Z</time>
      </trkpt>
      <trkpt lat="43.2344" lon="6.36429">
        <ele>303.4</ele>
        <time>2015-04-19T12:27:34Z</time>
      </trkpt>
      <trkpt lat="43.2343" lon="6.36386">
        <ele>304.2</ele>
        <time>2015-04-19T12:28:07Z</time>
      </trkpt>
      <trkpt lat="43.2343" lon="6.36362">
        <ele>304.8</ele>
        <time>2015-04-19T12:28:23Z</time>
      </trkpt>
      <trkpt lat="43.23423" lon="6.3634">
        <ele>305.5</ele>
        <time>2015-04-19T12:28:39Z</time>
      </trkpt>
      <trkpt lat="43.23423" lon="6.36339">
        <ele>305.5</ele>
        <time>2015-04-19T12:28:40Z</time>
      </trkpt>
      <trkpt lat="43.23425" lon="6.36291">
        <ele>305.4</ele>
        <time>2015-04-19T12:29:14Z</time>
      </trkpt>
      <trkpt lat="43.23428" lon="6.36268">
        <ele>305.5</ele>
        <time>2015-04-19T12:29:30Z</time>
      </trkpt>
      <trkpt lat="43.23436" lon="6.36246">
        <ele>305.2</ele>
        <time>2015-04-19T12:29:46Z</time>
      </trkpt>
      <trkpt lat="43.23436" lon="6.36245">
        <ele>305.2</ele>
        <time>2015-04-19T12:29:47Z</time>
      </trkpt>
      <trkpt lat="43.2345" lon="6.36202">
        <ele>306.1</ele>
        <time>2015-04-19T12:30:20Z</time>
      </trkpt>
      <trkpt lat="43.23455" lon="6.36179">
        <ele>306.2</ele>
        <time>2015-04-19T12:30:36Z</time>
      </trkpt>
      <trkpt lat="43.23463" lon="6.36158">
        <ele>306.8</ele>
        <time>2015-04-19T12:30:53Z</time>
      </trkpt>
      <trkpt lat="43.23464" lon="6.36157">
        <ele>306.8</ele>
        <time>2015-04-19T12:30:54Z</time>
      </trkpt>
      <trkpt lat="43.23481" lon="6.36117">
        <ele>307.9</ele>
        <time>2015-04-19T12:31:26Z</time>
      </trkpt>
      <trkpt lat="43.23488" lon="6.36096">
        <ele>309</ele>
        <time>2015-04-19T12:31:42Z</time>
      </trkpt>
      <trkpt lat="43.23496" lon="6.36074">
        <ele>309.2</ele>
        <time>2015-04-19T12:32:00Z</time>
      </trkpt>
      <trkpt lat="43.23497" lon="6.36074">
        <ele>309.2</ele>
        <time>2015-04-19T12:32:01Z</time>
      </trkpt>
      <trkpt lat="43.23522" lon="6.36042">
        <ele>310.4</ele>
        <time>2015-04-19T12:32:34Z</time>
      </trkpt>
      <trkpt lat="43.23537" lon="6.3603">
        <ele>311.9</ele>
        <time>2015-04-19T12:32:52Z</time>
      </trkpt>
      <trkpt lat="43.23554" lon="6.36021">
        <ele>312.4</ele>
        <time>2015-04-19T12:33:09Z</time>
      </trkpt>
      <trkpt lat="43.23555" lon="6.36021">
        <ele>312.4</ele>
        <time>2015-04-19T12:33:10Z</time>
      </trkpt>
      <trkpt lat="43.23587" lon="6.36008">
        <ele>314.4</ele>
        <time>2015-04-19T12:33:41Z</time>
      </trkpt>
      <trkpt lat="43.23605" lon="6.36004">
        <ele>315.1</ele>
        <time>2015-04-19T12:33:58Z</time>
      </trkpt>
      <trkpt lat="43.23622" lon="6.35997">
        <ele>315.7</ele>
        <time>2015-04-19T12:34:23Z</time>
      </trkpt>
      <trkpt lat="43.23623" lon="6.35997">
        <ele>315.7</ele>
        <time>2015-04-19T12:34:24Z</time>
      </trkpt>
      <trkpt lat="43.23654" lon="6.35984">
        <ele>314.7</ele>
        <time>2015-04-19T12:34:53Z</time>
      </trkpt>
      <trkpt lat="43.2367" lon="6.35975">
        <ele>315.3</ele>
        <time>2015-04-19T12:35:09Z</time>
      </trkpt>
      <trkpt lat="43.23678" lon="6.35953">
        <ele>316.8</ele>
        <time>2015-04-19T12:35:29Z</time>
      </trkpt>
      <trkpt lat="43.23678" lon="6.35953">
        <ele>316.8</ele>
        <time>2015-04-19T12:35:30Z</time>
      </trkpt>
      <trkpt lat="43.23703" lon="6.35922">
        <ele>317</ele>
        <time>2015-04-19T12:36:48Z</time>
      </trkpt>
      <trkpt lat="43.23704" lon="6.35922">
        <ele>317</ele>
        <time>2015-04-19T12:36:49Z</time>
      </trkpt>
      <trkpt lat="43.23726" lon="6.35886">
        <ele>320.1</ele>
        <time>2015-04-19T12:37:36Z</time>
      </trkpt>
      <trkpt lat="43.23734" lon="6.35864">
        <ele>322.1</ele>
        <time>2015-04-19T12:37:58Z</time>
      </trkpt>
      <trkpt lat="43.23734" lon="6.35863">
        <ele>322.1</ele>
        <time>2015-04-19T12:37:59Z</time>
      </trkpt>
      <trkpt lat="43.23746" lon="6.35821">
        <ele>328</ele>
        <time>2015-04-19T12:38:41Z</time>
      </trkpt>
      <trkpt lat="43.23747" lon="6.35796">
        <ele>329</ele>
        <time>2015-04-19T12:39:17Z</time>
      </trkpt>
      <trkpt lat="43.23747" lon="6.35796">
        <ele>329</ele>
        <time>2015-04-19T12:39:18Z</time>
      </trkpt>
      <trkpt lat="43.23758" lon="6.35752">
        <ele>333</ele>
        <time>2015-04-19T12:40:24Z</time>
      </trkpt>
      <trkpt lat="43.23759" lon="6.35751">
        <ele>333</ele>
        <time>2015-04-19T12:40:25Z</time>
      </trkpt>
      <trkpt lat="43.23789" lon="6.3573">
        <ele>337.7</ele>
        <time>2015-04-19T12:41:04Z</time>
      </trkpt>
      <trkpt lat="43.23804" lon="6.35716">
        <ele>338.5</ele>
        <time>2015-04-19T12:41:24Z</time>
      </trkpt>
      <trkpt lat="43.23799" lon="6.35693">
        <ele>339.8</ele>
        <time>2015-04-19T12:42:03Z</time>
      </trkpt>
      <trkpt lat="43.23798" lon="6.35691">
        <ele>339.8</ele>
        <time>2015-04-19T12:42:04Z</time>
      </trkpt>
      <trkpt lat="43.23781" lon="6.35653">
        <ele>343.1</ele>
        <time>2015-04-19T12:42:51Z</time>
      </trkpt>
      <trkpt lat="43.23782" lon="6.3563">
        <ele>344.7</ele>
        <time>2015-04-19T12:43:10Z</time>
      </trkpt>
      <trkpt lat="43.23782" lon="6.35629">
        <ele>344.7</ele>
        <time>2015-04-19T12:43:11Z</time>
      </trkpt>
      <trkpt lat="43.23778" lon="6.35597">
        <ele>348.4</ele>
        <time>2015-04-19T12:44:41Z</time>
      </trkpt>
    </trkseg>
  </trk>
</gpx>